Time;durP1;ratioP1;P1;durP2;ratioP2;P2;SDS_P1;SDS_P2;PMS_P1;PMS_P2;Temp;Humidity;BMP_temperature;BMP_pressure;BME280_temperature;BME280_humidity;BME280_pressure;Samples;Min_cycle;Max_cycle;Signal;HPM_P1;HPM_P2
2022/07/19 00:02:23;;;;;;;7.38;6.03;;;17.90;99.90;;;;;;5028052;28;20045;-68
2022/07/19 00:04:49;;;;;;;6.55;5.78;;;17.90;99.90;;;;;;5013069;28;20049;-68
2022/07/19 00:07:14;;;;;;;8.35;6.03;;;18.00;99.90;;;;;;5012421;28;20336;-68
2022/07/19 00:09:40;;;;;;;6.35;5.70;;;17.90;99.90;;;;;;5029601;28;20103;-68
2022/07/19 00:12:06;;;;;;;7.28;5.80;;;17.90;99.90;;;;;;5027667;28;20037;-68
2022/07/19 00:14:31;;;;;;;7.50;5.90;;;17.80;99.90;;;;;;5028834;28;20091;-68
2022/07/19 00:16:57;;;;;;;7.07;5.70;;;17.90;99.90;;;;;;5028740;28;20135;-68
2022/07/19 00:19:23;;;;;;;7.60;5.40;;;17.90;99.90;;;;;;5028666;28;20505;-68
2022/07/19 00:21:48;;;;;;;7.15;5.55;;;17.90;99.90;;;;;;5028215;28;20124;-68
2022/07/19 00:24:14;;;;;;;7.10;5.65;;;17.90;99.90;;;;;;5025945;28;20049;-68
2022/07/19 00:26:40;;;;;;;6.45;5.30;;;17.80;99.90;;;;;;5028332;28;20077;-68
2022/07/19 00:29:05;;;;;;;5.75;5.18;;;17.80;99.90;;;;;;5029327;28;20107;-68
2022/07/19 00:31:31;;;;;;;5.97;5.38;;;17.80;99.90;;;;;;5028350;28;20046;-68
2022/07/19 00:33:57;;;;;;;6.38;5.78;;;17.80;99.90;;;;;;5025921;28;20176;-68
2022/07/19 00:36:23;;;;;;;6.63;5.70;;;17.80;99.90;;;;;;5026768;28;20037;-68
2022/07/19 00:38:48;;;;;;;10.38;5.80;;;17.70;99.90;;;;;;5027648;28;20034;-68
2022/07/19 00:41:14;;;;;;;7.05;5.70;;;17.70;99.90;;;;;;5025656;28;20099;-68
2022/07/19 00:43:41;;;;;;;6.65;5.30;;;17.70;99.90;;;;;;5025745;28;20038;-68
2022/07/19 00:46:18;;;;;;;5.95;5.28;;;17.60;99.90;;;;;;5026594;28;20120;-68
2022/07/19 00:48:43;;;;;;;5.88;4.97;;;17.60;99.90;;;;;;5027782;28;20048;-69
2022/07/19 00:51:10;;;;;;;7.80;5.53;;;17.60;99.90;;;;;;5011178;28;20402;-69
2022/07/19 00:53:37;;;;;;;5.20;4.70;;;17.60;99.90;;;;;;5026229;28;20041;-68
2022/07/19 00:56:07;;;;;;;6.18;4.80;;;17.60;99.90;;;;;;5011830;28;20046;-68
2022/07/19 00:58:34;;;;;;;6.10;4.88;;;17.60;99.90;;;;;;5023461;28;20046;-68
2022/07/19 01:01:01;;;;;;;6.97;4.95;;;17.60;99.90;;;;;;5022751;28;20053;-68
2022/07/19 01:03:27;;;;;;;5.68;4.50;;;17.50;99.90;;;;;;5025651;28;20108;-68
2022/07/19 01:05:52;;;;;;;5.53;4.68;;;17.50;99.90;;;;;;5028916;28;20057;-68
2022/07/19 01:08:18;;;;;;;5.22;4.53;;;17.50;99.90;;;;;;5022623;28;20057;-68
2022/07/19 01:10:44;;;;;;;5.68;5.03;;;17.50;99.90;;;;;;5008136;28;20044;-68
2022/07/19 01:13:13;;;;;;;5.45;4.50;;;17.50;99.90;;;;;;5026115;28;20612;-68
2022/07/19 01:15:41;;;;;;;5.65;4.60;;;17.40;99.90;;;;;;5027643;28;20048;-68
2022/07/19 01:18:07;;;;;;;5.55;4.97;;;17.40;99.90;;;;;;5029792;28;20050;-68
2022/07/19 01:20:33;;;;;;;5.90;4.30;;;17.40;99.90;;;;;;5030141;28;20044;-68
2022/07/19 01:22:59;;;;;;;7.10;5.38;;;17.40;99.90;;;;;;5029536;28;20056;-68
2022/07/19 01:25:32;;;;;;;6.95;4.63;;;17.30;99.90;;;;;;5030027;28;20048;-68
2022/07/19 01:27:58;;;;;;;5.75;4.78;;;17.30;99.90;;;;;;5013167;28;20041;-68
2022/07/19 01:30:25;;;;;;;6.78;4.57;;;17.30;99.90;;;;;;5029785;28;20399;-69
2022/07/19 01:32:52;;;;;;;5.22;4.72;;;17.20;99.90;;;;;;5043764;28;20037;-69
2022/07/19 01:35:19;;;;;;;4.85;4.30;;;17.20;99.90;;;;;;5030733;28;20053;-69
2022/07/19 01:37:45;;;;;;;6.68;5.00;;;17.20;99.90;;;;;;5030359;28;20053;-68
2022/07/19 01:40:12;;;;;;;6.45;5.35;;;17.20;99.90;;;;;;5030305;28;20033;-68
2022/07/19 01:42:39;;;;;;;7.13;5.10;;;17.10;99.90;;;;;;5028721;28;20068;-69
2022/07/19 01:45:06;;;;;;;5.65;5.13;;;17.10;99.90;;;;;;5029661;28;20112;-69
2022/07/19 01:47:32;;;;;;;5.65;4.90;;;17.10;99.90;;;;;;5028162;28;20046;-68
2022/07/19 01:49:58;;;;;;;5.57;5.07;;;17.00;99.90;;;;;;5013668;28;20041;-68
2022/07/19 01:52:23;;;;;;;6.47;5.40;;;17.00;99.90;;;;;;5025787;28;20037;-68
2022/07/19 01:54:49;;;;;;;4.93;4.43;;;17.00;99.90;;;;;;5028472;28;20040;-68
2022/07/19 01:57:14;;;;;;;5.35;4.75;;;17.00;99.90;;;;;;5012829;28;20053;-68
2022/07/19 01:59:40;;;;;;;5.93;4.97;;;17.00;99.90;;;;;;5031271;28;20041;-69
2022/07/19 02:02:06;;;;;;;6.03;4.68;;;17.00;99.90;;;;;;5030468;28;20087;-68
2022/07/19 02:04:32;;;;;;;5.63;5.03;;;17.00;99.90;;;;;;5022946;28;20037;-68
2022/07/19 02:06:58;;;;;;;6.15;4.97;;;16.90;99.90;;;;;;5028963;28;20095;-68
2022/07/19 02:09:23;;;;;;;7.45;5.25;;;17.00;99.90;;;;;;5028542;28;20418;-68
2022/07/19 02:11:49;;;;;;;7.82;5.25;;;17.00;99.90;;;;;;5028256;28;20064;-68
2022/07/19 02:14:15;;;;;;;5.63;5.13;;;17.00;99.90;;;;;;5013551;28;20045;-68
2022/07/19 02:16:41;;;;;;;5.63;5.03;;;16.90;99.90;;;;;;5031026;28;20045;-69
2022/07/19 02:19:07;;;;;;;5.00;4.47;;;16.90;99.90;;;;;;5030527;28;20041;-69
2022/07/19 02:21:34;;;;;;;6.00;5.43;;;16.90;99.90;;;;;;5011292;28;20081;-69
2022/07/19 02:24:00;;;;;;;6.15;4.43;;;16.90;99.90;;;;;;5029125;28;20045;-69
2022/07/19 02:26:25;;;;;;;7.32;4.97;;;16.90;99.90;;;;;;5027477;28;20043;-69
2022/07/19 02:28:51;;;;;;;7.28;4.60;;;16.90;99.90;;;;;;5029488;28;20430;-69
2022/07/19 02:31:17;;;;;;;5.63;4.78;;;16.90;99.90;;;;;;5028590;28;20045;-69
2022/07/19 02:33:43;;;;;;;5.13;4.63;;;16.90;99.90;;;;;;5029893;28;20041;-69
2022/07/19 02:36:09;;;;;;;4.90;4.22;;;16.90;99.90;;;;;;5012325;28;20049;-69
2022/07/19 02:38:34;;;;;;;7.40;4.72;;;16.90;99.90;;;;;;5029065;28;20111;-69
2022/07/19 02:41:00;;;;;;;5.13;4.63;;;16.80;99.90;;;;;;5024960;28;20053;-69
2022/07/19 02:43:26;;;;;;;5.28;4.78;;;16.80;99.90;;;;;;5031206;28;20037;-69
2022/07/19 02:45:52;;;;;;;6.03;4.57;;;16.80;99.90;;;;;;5028844;28;20076;-69
2022/07/19 02:48:17;;;;;;;5.18;4.50;;;16.80;99.90;;;;;;5029124;28;20415;-69
2022/07/19 02:50:43;;;;;;;6.80;4.97;;;16.80;99.90;;;;;;5027875;28;20386;-69
2022/07/19 02:53:09;;;;;;;5.75;4.88;;;16.80;99.90;;;;;;5029584;28;20037;-69
2022/07/19 02:55:34;;;;;;;7.30;5.43;;;16.80;99.90;;;;;;5027796;28;20073;-69
2022/07/19 02:58:00;;;;;;;5.32;4.82;;;16.80;99.90;;;;;;5030445;28;20041;-69
2022/07/19 03:00:26;;;;;;;5.40;4.65;;;16.80;99.90;;;;;;5027719;28;20435;-69
2022/07/19 03:02:52;;;;;;;7.22;5.00;;;16.70;99.90;;;;;;5030030;28;20124;-68
2022/07/19 03:05:17;;;;;;;5.90;4.55;;;16.80;99.90;;;;;;5020343;28;20203;-68
2022/07/19 03:07:43;;;;;;;5.28;4.78;;;16.70;99.90;;;;;;5011157;28;20510;-68
2022/07/19 03:10:09;;;;;;;5.55;5.03;;;16.70;99.90;;;;;;5025313;28;20493;-68
2022/07/19 03:12:35;;;;;;;7.57;5.07;;;16.70;99.90;;;;;;5026444;28;20444;-68
2022/07/19 03:15:01;;;;;;;6.40;5.68;;;16.70;99.90;;;;;;5030488;28;20080;-68
2022/07/19 03:17:26;;;;;;;6.45;5.53;;;16.70;99.90;;;;;;5030325;28;20047;-68
2022/07/19 03:19:52;;;;;;;5.57;5.00;;;16.70;99.90;;;;;;5029811;28;20467;-68
2022/07/19 03:22:17;;;;;;;5.95;5.15;;;16.70;99.90;;;;;;5029624;28;20038;-68
2022/07/19 03:24:43;;;;;;;7.32;5.20;;;16.70;99.90;;;;;;5029621;28;20045;-68
2022/07/19 03:27:09;;;;;;;6.72;5.45;;;16.70;99.90;;;;;;5029557;28;20392;-68
2022/07/19 03:29:34;;;;;;;6.90;5.35;;;16.70;99.90;;;;;;5027521;28;20379;-68
2022/07/19 03:32:00;;;;;;;7.30;6.15;;;16.70;99.90;;;;;;5029936;28;20052;-68
2022/07/19 03:34:28;;;;;;;7.32;6.03;;;16.70;99.90;;;;;;5028483;28;20123;-68
2022/07/19 03:36:54;;;;;;;6.78;6.03;;;16.70;99.90;;;;;;5026858;28;20045;-68
2022/07/19 03:39:20;;;;;;;6.32;5.28;;;16.70;99.90;;;;;;5019367;28;20033;-69
2022/07/19 03:41:46;;;;;;;6.95;5.97;;;16.70;99.90;;;;;;5025150;28;20045;-68
2022/07/19 03:44:11;;;;;;;6.80;5.70;;;16.80;99.90;;;;;;5028176;28;20057;-69
2022/07/19 03:46:37;;;;;;;8.98;6.03;;;16.80;99.90;;;;;;4998894;28;20046;-69
2022/07/19 03:49:02;;;;;;;7.82;5.47;;;16.80;99.90;;;;;;5024085;28;20037;-69
2022/07/19 03:51:28;;;;;;;7.55;5.57;;;16.80;99.90;;;;;;5028078;28;20037;-69
2022/07/19 03:53:54;;;;;;;6.07;5.45;;;16.80;99.90;;;;;;5016038;28;20494;-69
2022/07/19 03:56:20;;;;;;;6.45;5.82;;;16.80;99.90;;;;;;5028391;28;20041;-69
2022/07/19 03:58:48;;;;;;;7.40;5.70;;;16.80;99.90;;;;;;5028876;28;20519;-69
2022/07/19 04:01:14;;;;;;;6.72;5.80;;;16.80;99.90;;;;;;5027956;28;20045;-69
2022/07/19 04:03:40;;;;;;;7.38;5.50;;;16.80;99.90;;;;;;5010878;28;20087;-69
2022/07/19 04:06:06;;;;;;;8.52;5.80;;;16.80;99.90;;;;;;5027353;28;20619;-69
2022/07/19 04:08:33;;;;;;;8.05;5.78;;;16.90;99.90;;;;;;5017209;28;20414;-69
2022/07/19 04:10:58;;;;;;;5.93;5.40;;;16.90;99.90;;;;;;5027667;28;20095;-69
2022/07/19 04:13:24;;;;;;;7.22;5.47;;;16.90;99.90;;;;;;5019098;28;20628;-68
2022/07/19 04:15:49;;;;;;;6.15;5.53;;;17.00;99.90;;;;;;5002372;28;20036;-69
2022/07/19 04:18:15;;;;;;;8.13;5.25;;;17.00;99.90;;;;;;5023465;28;20046;-69
2022/07/19 04:20:41;;;;;;;5.80;4.90;;;17.10;99.90;;;;;;5029648;28;20037;-68
2022/07/19 04:23:06;;;;;;;7.88;5.43;;;17.10;99.90;;;;;;5028834;28;20053;-68
2022/07/19 04:25:32;;;;;;;6.72;5.40;;;17.20;99.90;;;;;;5014401;28;20388;-68
2022/07/19 04:27:58;;;;;;;7.95;5.78;;;17.20;99.90;;;;;;5009850;28;20096;-68
2022/07/19 04:30:23;;;;;;;6.13;5.53;;;17.20;99.90;;;;;;5003465;28;20483;-68
2022/07/19 04:32:49;;;;;;;7.00;4.97;;;17.20;99.90;;;;;;5012648;28;20071;-68
2022/07/19 04:35:16;;;;;;;6.90;5.30;;;17.30;99.90;;;;;;5030891;28;20099;-68
2022/07/19 04:37:42;;;;;;;7.68;5.15;;;17.30;99.90;;;;;;5023050;28;20041;-68
2022/07/19 04:40:08;;;;;;;6.63;5.53;;;17.40;99.90;;;;;;5012082;28;20037;-68
2022/07/19 04:42:34;;;;;;;6.40;5.15;;;17.50;99.90;;;;;;5028693;28;20049;-68
2022/07/19 04:44:59;;;;;;;6.88;5.38;;;17.50;99.90;;;;;;5029329;28;20037;-68
2022/07/19 04:47:25;;;;;;;6.53;4.90;;;17.70;99.90;;;;;;5029238;28;20388;-68
2022/07/19 04:49:50;;;;;;;8.07;4.88;;;17.70;99.90;;;;;;5028632;28;20086;-68
2022/07/19 04:52:16;;;;;;;6.80;4.88;;;17.80;99.90;;;;;;5029227;28;20073;-68
2022/07/19 04:54:42;;;;;;;6.72;4.85;;;17.80;99.90;;;;;;5016552;28;20081;-68
2022/07/19 04:57:07;;;;;;;6.40;4.93;;;17.80;99.90;;;;;;5033277;28;20061;-68
2022/07/19 04:59:33;;;;;;;6.68;5.22;;;17.90;99.90;;;;;;5031934;28;20034;-68
2022/07/19 05:01:58;;;;;;;6.20;5.40;;;18.00;99.90;;;;;;5033292;28;20032;-68
2022/07/19 05:04:24;;;;;;;7.05;5.25;;;18.00;99.90;;;;;;5023218;28;20482;-69
2022/07/19 05:06:56;;;;;;;5.63;4.75;;;18.10;99.90;;;;;;5025032;28;20379;-68
2022/07/19 05:09:22;;;;;;;7.10;4.68;;;18.30;99.90;;;;;;5033581;28;20069;-69
2022/07/19 05:11:48;;;;;;;5.60;4.68;;;18.40;99.90;;;;;;5021920;28;20438;-69
2022/07/19 05:14:13;;;;;;;6.78;4.78;;;18.50;99.90;;;;;;5028984;28;20041;-69
2022/07/19 05:16:39;;;;;;;7.78;5.05;;;18.60;99.90;;;;;;5031991;28;20033;-69
2022/07/19 05:19:05;;;;;;;9.95;5.60;;;18.70;99.90;;;;;;5032618;28;20541;-68
2022/07/19 05:21:30;;;;;;;6.88;5.10;;;18.80;99.90;;;;;;5030775;28;20384;-68
2022/07/19 05:23:56;;;;;;;8.13;5.18;;;19.00;99.90;;;;;;5030113;28;20036;-68
2022/07/19 05:26:22;;;;;;;6.35;4.70;;;19.10;99.90;;;;;;5031185;28;20056;-68
2022/07/19 05:28:47;;;;;;;7.93;5.22;;;19.20;99.90;;;;;;5030344;28;20381;-68
2022/07/19 05:31:13;;;;;;;6.90;5.00;;;19.40;99.90;;;;;;5032225;28;20489;-68
2022/07/19 05:33:38;;;;;;;6.60;5.40;;;19.50;99.90;;;;;;5031787;28;20037;-68
2022/07/19 05:36:04;;;;;;;6.88;5.07;;;19.60;99.90;;;;;;5032169;28;20148;-68
2022/07/19 05:38:34;;;;;;;7.03;4.90;;;19.70;99.90;;;;;;5033836;28;20037;-68
2022/07/19 05:41:00;;;;;;;6.55;5.05;;;19.90;99.90;;;;;;5029788;28;20041;-68
2022/07/19 05:43:25;;;;;;;8.55;5.03;;;20.00;99.90;;;;;;5025628;28;20046;-68
2022/07/19 05:45:51;;;;;;;7.35;5.15;;;20.10;99.90;;;;;;5026720;28;20045;-68
2022/07/19 05:48:16;;;;;;;5.47;4.82;;;20.30;99.90;;;;;;5029965;28;20048;-68
2022/07/19 05:50:42;;;;;;;9.52;5.07;;;20.40;99.90;;;;;;5031524;28;20044;-68
2022/07/19 05:53:08;;;;;;;7.07;5.10;;;20.60;99.90;;;;;;5028119;28;20128;-69
2022/07/19 05:55:34;;;;;;;6.18;4.43;;;20.70;99.90;;;;;;5029297;28;20499;-69
2022/07/19 05:57:59;;;;;;;6.03;5.00;;;20.90;99.90;;;;;;5029392;28;20069;-68
2022/07/19 06:00:25;;;;;;;7.72;5.10;;;21.50;99.90;;;;;;5030418;28;20092;-71
2022/07/19 06:02:50;;;;;;;6.38;4.85;;;22.70;99.90;;;;;;5029987;28;20045;-72
2022/07/19 06:05:16;;;;;;;7.75;5.22;;;24.00;99.90;;;;;;5031835;28;20052;-72
2022/07/19 06:07:41;;;;;;;6.63;5.20;;;25.10;97.90;;;;;;5033160;28;20092;-72
2022/07/19 06:10:07;;;;;;;5.63;4.72;;;25.90;95.30;;;;;;5015446;28;20380;-72
2022/07/19 06:12:33;;;;;;;4.82;3.90;;;27.30;92.70;;;;;;5030799;28;20041;-72
2022/07/19 06:14:59;;;;;;;7.80;4.00;;;28.10;91.40;;;;;;5011110;28;20053;-72
2022/07/19 06:17:24;;;;;;;9.90;4.60;;;28.40;95.70;;;;;;5030849;28;20064;-72
2022/07/19 06:19:50;;;;;;;7.55;4.88;;;29.10;95.20;;;;;;5033380;28;20049;-72
2022/07/19 06:22:15;;;;;;;7.07;5.00;;;29.30;85.00;;;;;;5031585;28;20124;-72
2022/07/19 06:24:41;;;;;;;7.15;4.97;;;29.70;82.50;;;;;;5031665;28;20045;-72
2022/07/19 06:27:06;;;;;;;5.60;4.80;;;30.00;84.70;;;;;;5031067;28;20041;-72
2022/07/19 06:29:32;;;;;;;5.40;4.90;;;30.40;78.90;;;;;;5032227;28;20038;-72
2022/07/19 06:31:57;;;;;;;4.93;4.05;;;30.60;81.00;;;;;;5027183;28;20156;-72
2022/07/19 06:34:23;;;;;;;8.10;4.82;;;30.70;77.60;;;;;;5029821;28;20438;-72
2022/07/19 06:36:49;;;;;;;6.68;4.32;;;31.20;79.10;;;;;;5028656;28;20048;-72
2022/07/19 06:39:15;;;;;;;7.05;4.43;;;;;;;;;;5030043;28;20399;-72
2022/07/19 06:41:40;;;;;;;6.85;5.07;;;31.80;76.40;;;;;;5031389;28;20048;-72
2022/07/19 06:44:06;;;;;;;5.00;4.43;;;32.30;83.70;;;;;;5031196;28;20052;-72
2022/07/19 06:46:31;;;;;;;5.72;5.10;;;32.40;74.60;;;;;;5032458;28;20033;-72
2022/07/19 06:48:57;;;;;;;5.45;4.70;;;32.80;74.40;;;;;;5013879;28;20055;-72
2022/07/19 06:51:23;;;;;;;5.13;4.57;;;33.10;72.90;;;;;;5031200;28;20375;-72
2022/07/19 06:53:48;;;;;;;7.75;4.70;;;33.50;72.60;;;;;;5013513;28;20120;-72
2022/07/19 06:56:14;;;;;;;4.78;4.25;;;33.70;70.50;;;;;;5025277;28;20049;-72
2022/07/19 06:58:39;;;;;;;5.40;4.05;;;34.10;71.10;;;;;;5022876;28;20049;-72
2022/07/19 07:01:05;;;;;;;5.35;3.78;;;34.50;71.00;;;;;;5012485;28;20042;-73
2022/07/19 07:03:31;;;;;;;15.02;4.82;;;34.80;70.80;;;;;;5030344;28;20049;-72
2022/07/19 07:05:56;;;;;;;14.48;4.05;;;34.90;69.50;;;;;;5028732;28;20045;-72
2022/07/19 07:08:22;;;;;;;6.00;3.95;;;;;;;;;;5030414;28;20050;-72
2022/07/19 07:10:48;;;;;;;6.05;3.95;;;35.30;66.70;;;;;;5030974;28;20183;-72
2022/07/19 07:13:13;;;;;;;5.25;3.88;;;35.30;65.10;;;;;;5029865;28;20042;-72
2022/07/19 07:15:39;;;;;;;9.55;3.95;;;35.50;66.20;;;;;;5026935;28;20038;-72
2022/07/19 07:18:05;;;;;;;6.38;4.13;;;35.50;66.40;;;;;;5005147;28;20053;-72
2022/07/19 07:20:31;;;;;;;8.90;4.20;;;35.00;63.20;;;;;;5017581;28;20061;-72
2022/07/19 07:22:56;;;;;;;6.20;4.10;;;34.90;64.20;;;;;;5023877;28;20041;-72
2022/07/19 07:25:22;;;;;;;4.70;3.72;;;35.00;65.60;;;;;;5011020;28;20067;-72
2022/07/19 07:27:47;;;;;;;5.55;3.95;;;34.50;60.10;;;;;;5029216;28;20412;-72
2022/07/19 07:30:13;;;;;;;5.25;3.90;;;34.60;64.30;;;;;;5011598;28;20053;-72
2022/07/19 07:32:39;;;;;;;5.40;3.70;;;34.60;62.00;;;;;;5029949;28;20039;-72
2022/07/19 07:35:04;;;;;;;7.07;3.90;;;34.70;61.40;;;;;;5030426;28;20085;-72
2022/07/19 07:37:30;;;;;;;4.25;3.85;;;34.50;61.40;;;;;;5029943;28;20041;-72
2022/07/19 07:39:56;;;;;;;4.68;3.42;;;34.50;61.30;;;;;;5030512;28;20045;-72
2022/07/19 07:42:21;;;;;;;5.03;3.38;;;34.70;61.30;;;;;;5029774;28;20702;-72
2022/07/19 07:44:47;;;;;;;3.53;3.20;;;34.70;60.90;;;;;;5028174;28;20112;-72
2022/07/19 07:47:13;;;;;;;4.35;3.42;;;35.10;63.30;;;;;;5030248;28;20081;-73
2022/07/19 07:49:40;;;;;;;5.50;3.40;;;;;;;;;;5030215;28;20049;-72
2022/07/19 07:52:06;;;;;;;4.18;3.05;;;35.50;58.90;;;;;;5012928;28;20099;-72
2022/07/19 07:54:33;;;;;;;5.07;2.85;;;35.30;59.30;;;;;;5029670;28;20033;-72
2022/07/19 07:56:58;;;;;;;5.88;3.47;;;35.40;60.30;;;;;;5013489;28;20068;-72
2022/07/19 07:59:24;;;;;;;6.20;3.58;;;35.40;58.80;;;;;;5028838;28;20041;-72
2022/07/19 08:01:50;;;;;;;3.90;3.22;;;35.30;58.40;;;;;;5011189;28;20049;-72
2022/07/19 08:04:15;;;;;;;3.85;3.40;;;35.70;60.60;;;;;;5028555;28;20049;-72
2022/07/19 08:06:41;;;;;;;4.15;3.25;;;35.60;59.30;;;;;;5029635;28;20056;-72
2022/07/19 08:09:07;;;;;;;3.55;2.90;;;35.30;58.30;;;;;;5029936;28;20084;-72
2022/07/19 08:11:33;;;;;;;4.65;3.38;;;35.20;57.90;;;;;;5001972;28;20473;-73
2022/07/19 08:13:58;;;;;;;6.40;3.40;;;34.30;59.30;;;;;;5022291;28;20042;-72
2022/07/19 08:16:24;;;;;;;6.13;3.13;;;33.90;60.80;;;;;;5025751;28;20041;-73
2022/07/19 08:18:49;;;;;;;3.80;3.08;;;33.40;63.80;;;;;;5028991;28;20045;-73
2022/07/19 08:21:15;;;;;;;6.43;3.30;;;33.20;63.30;;;;;;5027955;28;20042;-72
2022/07/19 08:23:41;;;;;;;4.28;3.38;;;32.90;62.30;;;;;;5030186;28;20113;-72
2022/07/19 08:26:08;;;;;;;3.85;2.97;;;32.30;62.50;;;;;;5008723;28;20042;-73
2022/07/19 08:28:34;;;;;;;4.05;2.95;;;31.90;63.90;;;;;;5022190;28;20049;-72
2022/07/19 08:30:59;;;;;;;7.50;3.40;;;31.80;66.00;;;;;;5013801;28;20152;-72
2022/07/19 08:33:25;;;;;;;5.03;3.25;;;31.20;63.90;;;;;;5013842;28;20038;-72
2022/07/19 08:35:50;;;;;;;4.38;2.95;;;31.00;64.30;;;;;;5021993;28;20033;-73
2022/07/19 08:38:16;;;;;;;4.90;2.90;;;30.80;66.30;;;;;;5033538;28;20044;-72
2022/07/19 08:40:42;;;;;;;6.30;2.97;;;30.70;65.70;;;;;;5031612;28;20472;-72
2022/07/19 08:43:08;;;;;;;7.15;3.35;;;30.70;65.30;;;;;;5033413;28;20045;-72
2022/07/19 08:45:37;;;;;;;5.22;2.97;;;30.60;65.60;;;;;;5031172;28;20131;-72
2022/07/19 08:48:05;;;;;;;4.40;2.50;;;30.70;68.50;;;;;;5028107;28;20049;-72
2022/07/19 08:50:31;;;;;;;8.25;2.80;;;30.60;64.90;;;;;;5039789;28;20048;-73
2022/07/19 08:52:58;;;;;;;5.53;3.00;;;30.50;66.20;;;;;;5026919;28;20406;-72
2022/07/19 08:55:23;;;;;;;4.50;3.00;;;30.40;66.50;;;;;;5033868;28;20135;-72
2022/07/19 08:57:58;;;;;;;4.95;2.78;;;30.50;66.30;;;;;;5033070;28;20515;-72
2022/07/19 09:00:32;;;;;;;5.07;3.08;;;30.50;66.30;;;;;;5030481;28;20029;-73
2022/07/19 09:03:03;;;;;;;4.25;2.85;;;30.70;67.20;;;;;;5031722;28;20037;-70
2022/07/19 09:05:30;;;;;;;3.33;2.50;;;30.70;65.80;;;;;;5029451;28;20124;-70
2022/07/19 09:08:08;;;;;;;5.47;2.50;;;30.80;65.00;;;;;;5027906;28;20072;-71
2022/07/19 09:10:36;;;;;;;8.43;3.70;;;30.70;66.20;;;;;;5050351;28;20045;-72
2022/07/19 09:13:10;;;;;;;3.47;2.35;;;30.80;68.10;;;;;;5029975;28;20044;-72
2022/07/19 09:15:50;;;;;;;4.70;2.60;;;30.80;62.50;;;;;;5032139;28;20041;-72
2022/07/19 09:18:22;;;;;;;3.22;2.22;;;30.90;64.70;;;;;;5028188;28;20041;-72
2022/07/19 09:20:51;;;;;;;4.65;2.47;;;31.00;62.80;;;;;;5031695;28;20494;-72
2022/07/19 09:23:17;;;;;;;3.95;2.65;;;30.90;63.10;;;;;;5044905;22;20052;-73
2022/07/19 09:25:52;;;;;;;3.33;2.42;;;31.00;65.20;;;;;;5057529;28;20063;-72
2022/07/19 09:28:19;;;;;;;3.78;2.30;;;31.00;63.30;;;;;;5051624;28;20063;-71
2022/07/19 09:30:50;;;;;;;4.45;2.35;;;31.10;66.00;;;;;;5054279;28;20052;-72
2022/07/19 09:33:18;;;;;;;;;;;31.20;62.50;;;;;;5054771;28;20037;-71
2022/07/19 09:35:56;;;;;;;5.07;2.30;;;31.40;64.40;;;;;;5055439;28;19917;-72
2022/07/19 09:38:33;;;;;;;8.25;2.60;;;31.50;62.00;;;;;;5054132;28;20098;-72
2022/07/19 09:41:19;;;;;;;7.75;2.42;;;31.60;62.50;;;;;;5051351;28;20052;-72
2022/07/19 09:43:53;;;;;;;4.63;2.30;;;31.70;60.10;;;;;;5051954;28;20080;-71
2022/07/19 09:46:39;;;;;;;4.00;1.80;;;31.80;62.60;;;;;;5052405;28;20097;-71
2022/07/19 09:49:12;;;;;;;3.33;2.22;;;32.00;62.70;;;;;;5056254;28;20080;-71
2022/07/19 09:51:40;;;;;;;4.30;1.80;;;32.10;61.30;;;;;;5069267;28;20032;-71
2022/07/19 09:54:07;;;;;;;2.38;1.77;;;32.20;61.00;;;;;;5058119;28;20045;-71
2022/07/19 09:56:34;;;;;;;3.90;2.00;;;32.30;58.60;;;;;;5058885;28;20119;-71
2022/07/19 09:59:00;;;;;;;2.63;1.90;;;32.30;58.90;;;;;;5070431;28;20097;-72
2022/07/19 10:01:27;;;;;;;3.15;1.98;;;32.40;60.40;;;;;;5071369;28;20041;-71
2022/07/19 10:03:56;;;;;;;2.45;2.00;;;32.40;57.80;;;;;;5064068;28;20486;-71
2022/07/19 10:06:23;;;;;;;4.70;2.17;;;32.50;56.20;;;;;;5061378;28;20477;-71
2022/07/19 10:08:50;;;;;;;4.13;2.00;;;32.50;58.00;;;;;;5068478;28;20040;-71
2022/07/19 10:11:16;;;;;;;4.50;2.10;;;32.60;59.70;;;;;;5068439;28;20047;-73
2022/07/19 10:13:42;;;;;;;3.20;1.88;;;32.70;59.70;;;;;;5070940;28;20036;-72
2022/07/19 10:16:14;;;;;;;4.70;2.22;;;32.80;59.10;;;;;;5066462;28;20409;-72
2022/07/19 10:18:51;;;;;;;3.95;2.13;;;32.90;59.70;;;;;;5066990;28;20094;-71
2022/07/19 10:21:17;;;;;;;4.80;2.10;;;32.90;56.90;;;;;;5066101;28;20087;-72
2022/07/19 10:23:52;;;;;;;5.05;2.35;;;33.00;60.20;;;;;;5069801;28;20060;-70
2022/07/19 10:26:39;;;;;;;6.22;1.98;;;33.10;56.50;;;;;;5071480;28;20393;-71
2022/07/19 10:29:17;;;;;;;2.95;1.95;;;33.10;55.60;;;;;;5062273;28;20672;-71
2022/07/19 10:32:01;;;;;;;4.07;2.15;;;33.20;59.50;;;;;;5056388;28;20112;-71
2022/07/19 10:34:26;;;;;;;6.88;2.15;;;33.30;61.70;;;;;;5072077;28;20072;-71
2022/07/19 10:36:52;;;;;;;3.90;2.00;;;33.30;59.60;;;;;;5069267;28;20078;-72
2022/07/19 10:39:17;;;;;;;5.03;2.10;;;33.40;59.40;;;;;;5071493;28;20072;-72
2022/07/19 10:42:08;;;;;;;9.32;2.10;;;33.40;58.90;;;;;;5063631;28;20377;-72
2022/07/19 10:44:35;;;;;;;2.45;1.92;;;33.50;59.80;;;;;;5062844;28;20130;-71
2022/07/19 10:47:01;;;;;;;3.53;2.30;;;33.50;57.50;;;;;;5072508;28;20040;-71
2022/07/19 10:49:43;;;;;;;5.65;1.92;;;33.50;53.10;;;;;;5071679;28;20036;-72
2022/07/19 10:52:27;;;;;;;3.55;2.00;;;33.50;53.70;;;;;;5063364;28;20045;-71
2022/07/19 10:55:22;;;;;;;2.78;1.50;;;33.50;56.70;;;;;;5050603;28;20355;-72
2022/07/19 10:58:06;;;;;;;4.07;2.08;;;33.70;58.00;;;;;;5052510;28;20037;-72
2022/07/19 11:00:44;;;;;;;2.88;1.60;;;33.70;57.00;;;;;;5065092;28;20043;-71
2022/07/19 11:03:22;;;;;;;2.17;1.60;;;33.80;55.80;;;;;;5071085;28;20377;-71
2022/07/19 11:05:53;;;;;;;3.33;1.73;;;33.80;57.80;;;;;;5070182;28;20158;-71
2022/07/19 11:08:40;;;;;;;4.32;1.98;;;33.90;55.50;;;;;;5060413;28;20043;-72
2022/07/19 11:11:15;;;;;;;4.95;1.90;;;34.00;55.40;;;;;;5070699;28;20166;-71
2022/07/19 11:13:46;;;;;;;3.05;1.52;;;34.00;56.00;;;;;;5072247;28;20036;-71
2022/07/19 11:16:12;;;;;;;4.15;1.48;;;34.10;54.50;;;;;;5070858;28;20073;-71
2022/07/19 11:18:38;;;;;;;2.88;1.63;;;34.10;56.00;;;;;;5068370;28;20090;-71
2022/07/19 11:21:05;;;;;;;5.68;1.90;;;34.20;54.70;;;;;;5064640;28;20582;-71
2022/07/19 11:23:33;;;;;;;1.92;1.70;;;34.20;54.90;;;;;;5063999;28;20048;-71
2022/07/19 11:26:11;;;;;;;2.85;1.48;;;34.20;54.50;;;;;;5067591;28;20039;-71
2022/07/19 11:28:39;;;;;;;2.65;1.45;;;34.30;54.90;;;;;;5069569;28;20043;-71
2022/07/19 11:31:23;;;;;;;2.22;1.50;;;34.30;54.30;;;;;;5070671;28;20119;-72
2022/07/19 11:33:53;;;;;;;4.22;1.73;;;34.40;52.70;;;;;;5070564;28;20032;-72
2022/07/19 11:36:19;;;;;;;2.10;1.58;;;34.50;56.80;;;;;;5066870;28;20115;-72
2022/07/19 11:38:46;;;;;;;1.83;1.40;;;34.60;56.70;;;;;;5066759;28;20425;-72
2022/07/19 11:41:13;;;;;;;4.25;1.65;;;34.60;54.70;;;;;;5070879;28;20044;-72
2022/07/19 11:43:39;;;;;;;2.33;1.45;;;34.70;55.00;;;;;;5070221;28;20036;-72
2022/07/19 11:46:05;;;;;;;5.78;1.70;;;34.60;51.90;;;;;;5071006;28;20049;-71
2022/07/19 11:48:31;;;;;;;2.40;1.40;;;34.70;52.90;;;;;;5071226;28;20036;-71
2022/07/19 11:51:05;;;;;;;3.40;1.70;;;34.70;54.40;;;;;;5068683;28;20028;-71
2022/07/19 11:53:31;;;;;;;2.78;1.65;;;34.70;54.70;;;;;;5070722;28;20048;-71
2022/07/19 11:55:57;;;;;;;2.83;1.40;;;34.70;51.20;;;;;;5057951;28;20040;-71
2022/07/19 11:58:23;;;;;;;2.85;1.60;;;34.70;54.60;;;;;;5070826;28;20047;-71
2022/07/19 12:00:49;;;;;;;4.43;1.60;;;34.80;52.60;;;;;;5070154;28;20055;-71
2022/07/19 12:03:19;;;;;;;5.57;1.70;;;34.80;53.10;;;;;;5053227;28;20049;-71
2022/07/19 12:05:58;;;;;;;2.40;1.65;;;34.80;53.00;;;;;;5070007;28;20048;-72
2022/07/19 12:08:42;;;;;;;3.05;1.33;;;34.90;53.90;;;;;;5057242;28;20036;-72
2022/07/19 12:11:18;;;;;;;2.10;1.65;;;34.90;50.00;;;;;;5051503;28;20040;-72
2022/07/19 12:13:44;;;;;;;4.97;1.58;;;35.00;49.60;;;;;;5070908;28;20048;-72
2022/07/19 12:16:12;;;;;;;3.42;1.60;;;35.00;51.30;;;;;;5068637;28;20040;-72
2022/07/19 12:18:46;;;;;;;2.47;1.30;;;35.10;49.70;;;;;;5068842;28;20119;-72
2022/07/19 12:21:40;;;;;;;2.13;1.55;;;35.10;52.20;;;;;;5066973;28;20470;-72
2022/07/19 12:24:23;;;;;;;4.25;1.70;;;35.10;51.30;;;;;;5050662;28;20045;-72
2022/07/19 12:26:54;;;;;;;3.33;1.50;;;35.20;50.20;;;;;;5070006;28;20047;-72
2022/07/19 12:29:22;;;;;;;2.83;1.60;;;35.20;50.40;;;;;;5060470;28;20128;-72
2022/07/19 12:31:49;;;;;;;3.42;1.30;;;35.30;50.80;;;;;;5054107;28;20086;-66
2022/07/19 12:34:16;;;;;;;4.38;1.38;;;35.20;47.10;;;;;;5069765;28;20040;-67
2022/07/19 12:36:41;;;;;;;4.45;1.50;;;35.30;49.30;;;;;;5069288;28;20128;-67
2022/07/19 12:39:20;;;;;;;4.60;1.50;;;35.40;51.60;;;;;;5069021;28;20120;-66
2022/07/19 12:41:56;;;;;;;3.58;1.40;;;35.50;51.70;;;;;;5068671;28;20712;-66
2022/07/19 12:44:22;;;;;;;2.45;1.50;;;35.50;52.90;;;;;;5051137;28;20052;-67
2022/07/19 12:46:48;;;;;;;3.17;1.30;;;35.50;49.40;;;;;;5049570;28;20402;-66
2022/07/19 12:49:14;;;;;;;4.82;1.50;;;35.50;50.60;;;;;;5064909;28;20416;-67
2022/07/19 12:51:43;;;;;;;5.40;2.45;;;35.60;49.70;;;;;;5069696;28;20032;-67